Time;durP1;ratioP1;P1;durP2;ratioP2;P2;SDS_P1;SDS_P2;PMS_P1;PMS_P2;Temp;Humidity;BMP_temperature;BMP_pressure;BME280_temperature;BME280_humidity;BME280_pressure;Samples;Min_cycle;Max_cycle;Signal;HPM_P1;HPM_P2
2022/06/21 00:01:13;;;;;;;7.20;5.63;;;;;;;;;;6191167;28;20053;-83
2022/06/21 00:04:15;;;;;;;7.03;5.90;;;;;;;;;;6180166;28;20047;-83
2022/06/21 00:07:26;;;;;;;7.40;6.07;;;;;;;;;;6168993;28;20043;-80
2022/06/21 00:10:28;;;;;;;7.80;5.95;;;;;;;;;;6143469;28;20126;-83
2022/06/21 00:13:32;;;;;;;6.57;5.85;;;;;;;;;;6176273;28;20117;-84
2022/06/21 00:16:35;;;;;;;6.72;5.85;;;;;;;;;;6188374;28;20078;-82
2022/06/21 00:19:37;;;;;;;5.93;5.25;;;;;;;;;;6189870;28;20054;-82
2022/06/21 00:22:39;;;;;;;8.63;5.53;;;;;;;;;;6144733;28;20179;-84
2022/06/21 00:25:42;;;;;;;8.15;5.95;;;;;;;;;;6181390;28;20539;-82
2022/06/21 00:28:43;;;;;;;6.65;5.95;;;;;;;;;;6162679;28;20098;-80
2022/06/21 00:31:48;;;;;;;6.72;6.00;;;;;;;;;;6182968;28;20770;-84
2022/06/21 00:34:49;;;;;;;6.70;5.65;;;;;;;;;;6182808;28;20062;-81
2022/06/21 00:37:53;;;;;;;6.63;6.00;;;;;;;;;;6175817;28;20098;-84
2022/06/21 00:40:56;;;;;;;;;;;;;;;;;;6184668;28;20129;-82
2022/06/21 00:44:02;;;;;;;9.07;6.15;;;;;;;;;;6185543;28;19983;-82
2022/06/21 00:47:06;;;;;;;9.05;5.70;;;;;;;;;;6161224;28;20070;-83
2022/06/21 00:50:10;;;;;;;5.90;5.32;;;;;;;;;;6179920;28;20046;-81
2022/06/21 00:53:25;;;;;;;7.93;6.45;;;;;;;;;;6185733;28;20047;-82
2022/06/21 00:56:37;;;;;;;8.68;6.22;;;;;;;;;;6156754;28;20043;-80
2022/06/21 00:59:39;;;;;;;8.05;6.63;;;;;;;;;;6153783;28;20059;-81
2022/06/21 01:02:40;;;;;;;8.93;6.18;;;;;;;;;;6169085;28;20046;-84
2022/06/21 01:05:44;;;;;;;8.90;6.80;;;;;;;;;;6188942;28;20530;-81
2022/06/21 01:09:01;;;;;;;7.05;6.35;;;;;;;;;;6185644;28;20046;-82
2022/06/21 01:12:10;;;;;;;7.47;6.00;;;;;;;;;;6184545;28;20042;-82
2022/06/21 01:15:22;;;;;;;9.43;6.15;;;;;;;;;;6191336;28;20098;-81
2022/06/21 01:18:26;;;;;;;9.90;6.72;;;;;;;;;;6183731;28;20070;-82
2022/06/21 01:21:30;;;;;;;8.45;6.45;;;;;;;;;;6195109;28;20375;-81
2022/06/21 01:25:00;;;;;;;10.98;6.88;;;;;;;;;;6183500;28;20248;-80
2022/06/21 01:28:02;;;;;;;9.35;6.68;;;;;;;;;;6185742;28;20046;-81
2022/06/21 01:31:04;;;;;;;9.80;6.28;;;;;;;;;;6181518;28;20108;-81
2022/06/21 01:34:20;;;;;;;6.07;5.50;;;;;;;;;;6185129;28;20388;-83
2022/06/21 01:37:28;;;;;;;6.07;5.47;;;;;;;;;;6145682;28;20038;-81
2022/06/21 01:40:35;;;;;;;8.02;5.80;;;;;;;;;;6153933;28;20488;-81
2022/06/21 01:43:40;;;;;;;8.38;6.65;;;;;;;;;;6159957;28;20077;-79
2022/06/21 01:46:43;;;;;;;9.13;5.68;;;;;;;;;;6182532;28;20047;-79
2022/06/21 01:49:55;;;;;;;8.20;6.22;;;;;;;;;;6191181;28;20046;-81
2022/06/21 01:52:57;;;;;;;7.72;6.57;;;;;;;;;;6182450;28;20117;-80
2022/06/21 01:56:07;;;;;;;9.48;7.13;;;;;;;;;;6183134;28;20393;-80
2022/06/21 01:59:17;;;;;;;8.35;6.18;;;;;;;;;;6175682;28;20051;-80
2022/06/21 02:02:30;;;;;;;7.53;6.03;;;;;;;;;;6189606;28;20066;-80
2022/06/21 02:05:39;;;;;;;8.68;5.03;;;;;;;;;;6166466;28;20046;-82
2022/06/21 02:08:55;;;;;;;6.13;5.50;;;;;;;;;;6183145;28;20547;-82
2022/06/21 02:12:04;;;;;;;6.63;5.43;;;;;;;;;;6194248;28;20069;-83
2022/06/21 02:15:08;;;;;;;7.05;5.78;;;;;;;;;;6159528;28;20097;-80
2022/06/21 02:18:12;;;;;;;14.18;6.32;;;;;;;;;;6184227;28;20639;-80
2022/06/21 02:21:19;;;;;;;8.95;6.63;;;;;;;;;;6163387;28;20098;-81
2022/06/21 02:24:23;;;;;;;18.60;7.45;;;;;;;;;;6180995;28;20050;-81
2022/06/21 02:27:30;;;;;;;14.95;7.10;;;;;;;;;;6182446;28;20106;-82
2022/06/21 02:30:32;;;;;;;10.63;7.40;;;;;;;;;;6175549;28;20049;-83
2022/06/21 02:33:33;;;;;;;11.45;7.70;;;;;;;;;;6185864;28;20515;-83
2022/06/21 02:36:52;;;;;;;14.82;7.47;;;;;;;;;;6162110;28;20120;-80
2022/06/21 02:39:56;;;;;;;11.65;8.20;;;;;;;;;;6178128;28;20126;-80
2022/06/21 02:43:03;;;;;;;16.35;8.25;;;;;;;;;;6161388;28;20120;-81
2022/06/21 02:46:34;;;;;;;22.63;8.55;;;;;;;;;;6176072;28;20054;-82
2022/06/21 02:49:59;;;;;;;12.07;7.72;;;;;;;;;;6156768;28;20046;-81
2022/06/21 02:53:05;;;;;;;13.90;8.15;;;;;;;;;;6177964;28;20052;-82
2022/06/21 02:56:10;;;;;;;11.18;7.78;;;;;;;;;;6180868;28;20043;-81
2022/06/21 02:59:13;;;;;;;20.50;8.88;;;;;;;;;;6190659;28;20049;-82
2022/06/21 03:02:20;;;;;;;10.50;8.13;;;;;;;;;;6178899;28;20413;-79
2022/06/21 03:05:26;;;;;;;10.57;7.82;;;;;;;;;;6182805;28;20046;-82
2022/06/21 03:08:30;;;;;;;12.18;8.40;;;;;;;;;;6182381;28;20043;-84
2022/06/21 03:11:36;;;;;;;13.20;8.13;;;;;;;;;;6183907;28;20047;-83
2022/06/21 03:14:37;;;;;;;16.25;7.78;;;;;;;;;;6174558;28;20186;-78
2022/06/21 03:17:47;;;;;;;40.40;9.77;;;;;;;;;;6179282;28;20110;-78
2022/06/21 03:20:51;;;;;;;72.30;9.50;;;;;;;;;;6185243;28;20061;-81
2022/06/21 03:23:53;;;;;;;21.23;7.95;;;;;;;;;;6179575;28;20110;-79
2022/06/21 03:27:03;;;;;;;10.03;7.47;;;;;;;;;;6187042;28;20050;-81
2022/06/21 03:30:05;;;;;;;34.28;8.05;;;;;;;;;;6183842;28;20554;-81
2022/06/21 03:33:07;;;;;;;19.85;7.10;;;;;;;;;;6189007;28;20050;-77
2022/06/21 03:36:13;;;;;;;11.05;7.53;;;;;;;;;;6166938;28;20125;-79
2022/06/21 03:39:21;;;;;;;35.55;8.00;;;;;;;;;;6169817;28;20047;-78
2022/06/21 03:42:27;;;;;;;14.75;6.90;;;;;;;;;;6172870;28;20046;-77
2022/06/21 03:45:34;;;;;;;23.98;7.53;;;;;;;;;;6184381;28;20046;-80
2022/06/21 03:48:45;;;;;;;18.90;7.78;;;;;;;;;;6177888;28;20039;-79
2022/06/21 03:51:48;;;;;;;15.60;7.85;;;;;;;;;;6165479;28;20043;-80
2022/06/21 03:54:51;;;;;;;14.85;6.93;;;;;;;;;;6163684;28;20052;-80
2022/06/21 03:58:15;;;;;;;26.23;6.60;;;;;;;;;;6172865;28;20081;-80
2022/06/21 04:01:24;;;;;;;8.95;6.13;;;;;;;;;;6172835;28;20043;-78
2022/06/21 04:04:35;;;;;;;8.85;6.32;;;;;;;;;;6180254;28;20133;-79
2022/06/21 04:07:46;;;;;;;10.85;6.22;;;;;;;;;;6178574;28;20046;-79
2022/06/21 04:10:56;;;;;;;11.65;7.38;;;;;;;;;;6176715;28;20644;-80
2022/06/21 04:14:06;;;;;;;12.73;8.20;;;;;;;;;;6172927;28;20065;-80
2022/06/21 04:17:13;;;;;;;12.60;6.97;;;;;;;;;;6183706;28;20121;-79
2022/06/21 04:20:30;;;;;;;8.63;6.35;;;;;;;;;;6178612;28;20046;-79
2022/06/21 04:23:35;;;;;;;10.50;6.18;;;;;;;;;;6174921;28;20126;-83
2022/06/21 04:26:51;;;;;;;13.88;7.18;;;;;;;;;;6177224;28;20138;-77
2022/06/21 04:30:08;;;;;;;11.07;6.68;;;;;;;;;;6182701;28;20050;-82
2022/06/21 04:33:26;;;;;;;13.02;6.10;;;;;;;;;;6185708;28;20043;-78
2022/06/21 04:36:58;;;;;;;21.63;6.57;;;;;;;;;;6185195;28;20200;-79
2022/06/21 04:40:36;;;;;;;12.90;6.55;;;;;;;;;;6177411;28;20142;-80
2022/06/21 04:43:48;;;;;;;7.80;5.65;;;;;;;;;;6170455;28;20038;-78
2022/06/21 04:46:59;;;;;;;14.43;5.60;;;;;;;;;;6177020;28;20062;-79
2022/06/21 04:50:14;;;;;;;7.40;5.57;;;;;;;;;;6161081;28;20385;-80
2022/06/21 04:53:25;;;;;;;8.50;5.60;;;;;;;;;;6176066;28;20047;-79
2022/06/21 04:56:39;;;;;;;19.17;5.75;;;;;;;;;;6196772;28;20073;-77
2022/06/21 04:59:58;;;;;;;12.63;5.25;;;;;;;;;;6177494;28;20043;-80
2022/06/21 05:03:09;;;;;;;8.07;5.55;;;;;;;;;;6186739;28;20038;-80
2022/06/21 05:06:13;;;;;;;11.90;5.70;;;;;;;;;;6169516;28;20042;-80
2022/06/21 05:09:19;;;;;;;9.52;5.65;;;;;;;;;;6183938;28;20046;-79
2022/06/21 05:12:27;;;;;;;7.25;5.47;;;;;;;;;;6187917;28;20582;-79
2022/06/21 05:15:37;;;;;;;7.85;5.97;;;;;;;;;;6181962;28;20146;-80
2022/06/21 05:18:43;;;;;;;8.80;5.70;;;;;;;;;;6172884;28;20130;-77
2022/06/21 05:21:52;;;;;;;8.05;5.97;;;;;;;;;;6183521;28;20568;-76
2022/06/21 05:24:55;;;;;;;7.75;5.50;;;;;;;;;;6179389;28;20100;-80
2022/06/21 05:28:00;;;;;;;;;;;;;;;;;;6161053;28;20067;-77
2022/06/21 05:31:06;;;;;;;8.35;5.38;;;;;;;;;;6150624;28;19922;-77
2022/06/21 05:34:28;;;;;;;7.28;5.78;;;;;;;;;;6180102;28;20497;-79
2022/06/21 05:37:51;;;;;;;5.85;5.00;;;;;;;;;;6171283;28;20051;-78
2022/06/21 05:40:59;;;;;;;8.02;5.28;;;;;;;;;;6177888;28;20566;-82
2022/06/21 05:44:13;;;;;;;5.95;5.20;;;;;;;;;;6179452;28;20106;-80
2022/06/21 05:47:26;;;;;;;7.32;5.47;;;;;;;;;;6179996;28;20038;-80
2022/06/21 05:50:31;;;;;;;5.53;5.03;;;;;;;;;;6179248;28;20138;-81
2022/06/21 05:53:39;;;;;;;7.28;5.85;;;;;;;;;;6175537;28;20066;-80
2022/06/21 05:56:41;;;;;;;6.50;5.38;;;;;;;;;;6190152;28;20043;-79
2022/06/21 05:59:43;;;;;;;6.07;4.72;;;;;;;;;;6178469;28;20043;-77
2022/06/21 06:02:50;;;;;;;6.00;5.10;;;;;;;;;;6176804;28;20181;-78
2022/06/21 06:05:53;;;;;;;7.20;4.90;;;;;;;;;;6184280;28;20050;-81
2022/06/21 06:09:00;;;;;;;6.65;5.10;;;;;;;;;;6167705;28;20142;-79
2022/06/21 06:12:08;;;;;;;5.93;4.70;;;;;;;;;;6154933;28;20051;-78
2022/06/21 06:15:12;;;;;;;5.72;4.07;;;;;;;;;;6156309;28;20050;-78
2022/06/21 06:18:14;;;;;;;7.53;4.63;;;;;;;;;;6182032;28;20130;-79
2022/06/21 06:21:24;;;;;;;6.40;4.20;;;;;;;;;;6151857;28;20095;-80
2022/06/21 06:24:34;;;;;;;5.90;5.03;;;;;;;;;;6181328;28;20050;-79
2022/06/21 06:27:55;;;;;;;5.45;4.43;;;;;;;;;;6170047;28;20165;-78
2022/06/21 06:31:18;;;;;;;6.38;4.45;;;;;;;;;;6174365;28;20046;-81
2022/06/21 06:34:26;;;;;;;5.32;3.97;;;;;;;;;;6183477;28;20051;-79
2022/06/21 06:37:36;;;;;;;4.32;3.92;;;;;;;;;;6175072;28;20047;-76
2022/06/21 06:40:43;;;;;;;10.82;4.50;;;;;;;;;;6175240;28;20519;-80
2022/06/21 06:43:55;;;;;;;9.40;4.40;;;;;;;;;;6172401;28;20065;-81
2022/06/21 06:47:01;;;;;;;10.23;4.35;;;;;;;;;;6176574;28;21012;-83
2022/06/21 06:50:11;;;;;;;5.63;4.03;;;;;;;;;;6177658;28;20069;-81
2022/06/21 06:53:31;;;;;;;5.88;4.07;;;;;;;;;;6163883;28;20751;-81
2022/06/21 06:57:06;;;;;;;5.53;3.90;;;;;;;;;;6175085;28;20518;-79
2022/06/21 07:00:15;;;;;;;6.60;3.78;;;;;;;;;;6170045;28;20560;-83
2022/06/21 07:03:24;;;;;;;5.97;3.83;;;;;;;;;;6178755;28;20042;-79
2022/06/21 07:06:49;;;;;;;6.13;3.78;;;;;;;;;;6187635;28;20849;-82
2022/06/21 07:09:55;;;;;;;5.72;3.58;;;;;;;;;;6182902;28;20095;-79
2022/06/21 07:12:57;;;;;;;3.60;3.30;;;;;;;;;;6169232;28;20042;-82
2022/06/21 07:16:02;;;;;;;6.63;3.30;;;;;;;;;;6186212;28;20112;-83
2022/06/21 07:19:04;;;;;;;5.25;3.30;;;;;;;;;;6185912;28;20054;-81
2022/06/21 07:22:19;;;;;;;5.07;3.13;;;;;;;;;;6181074;28;20455;-79
2022/06/21 07:25:36;;;;;;;6.07;2.97;;;;;;;;;;6172155;28;20117;-80
2022/06/21 07:28:40;;;;;;;6.05;2.78;;;;;;;;;;6174440;28;20050;-81
2022/06/21 07:31:49;;;;;;;3.55;2.55;;;;;;;;;;6172204;28;20141;-81
2022/06/21 07:35:01;;;;;;;4.78;2.60;;;;;;;;;;6180233;28;20054;-79
2022/06/21 07:38:14;;;;;;;5.43;2.40;;;;;;;;;;6174409;28;20038;-79
2022/06/21 07:41:29;;;;;;;6.32;3.00;;;;;;;;;;6173812;28;20732;-80
2022/06/21 07:44:38;;;;;;;3.97;2.67;;;;;;;;;;6169951;28;20064;-80
2022/06/21 07:47:48;;;;;;;3.25;2.60;;;;;;;;;;6175224;28;20118;-81
2022/06/21 07:50:53;;;;;;;4.75;2.75;;;;;;;;;;6171900;28;20060;-80
2022/06/21 07:54:15;;;;;;;6.28;2.60;;;;;;;;;;6168241;28;20066;-81
2022/06/21 07:57:22;;;;;;;4.43;2.90;;;;;;;;;;6165183;28;20446;-81
2022/06/21 08:06:40;;;;;;;3.15;2.50;;;;;;;;;;6177254;28;20050;-80
2022/06/21 08:07:22;;;;;;;7.45;2.97;;;;;;;;;;6169798;28;20050;-80
2022/06/21 08:10:42;;;;;;;3.33;2.63;;;;;;;;;;6171967;28;20050;-80
2022/06/21 08:13:44;;;;;;;4.72;2.63;;;;;;;;;;6174343;28;20058;-79
2022/06/21 08:16:59;;;;;;;5.70;2.72;;;;;;;;;;6176180;28;20129;-79
2022/06/21 08:20:08;;;;;;;3.95;2.63;;;;;;;;;;6165898;28;20053;-80
2022/06/21 08:23:17;;;;;;;7.07;2.70;;;;;;;;;;6178248;28;20054;-78
2022/06/21 08:26:39;;;;;;;4.60;2.50;;;;;;;;;;6164728;28;20042;-80
2022/06/21 08:30:09;;;;;;;5.17;2.47;;;;;;;;;;6152227;28;20059;-81
2022/06/21 08:33:19;;;;;;;4.97;2.80;;;;;;;;;;6168469;28;20212;-81
2022/06/21 08:36:53;;;;;;;3.58;2.50;;;;;;;;;;6176082;28;20053;-79
2022/06/21 08:40:27;;;;;;;3.15;2.53;;;;;;;;;;6168751;28;20126;-77
2022/06/21 08:43:43;;;;;;;4.32;2.80;;;;;;;;;;6167737;28;20058;-79
2022/06/21 08:47:05;;;;;;;5.40;2.78;;;;;;;;;;6172284;28;20038;-76
2022/06/21 08:50:37;;;;;;;4.80;2.78;;;;;;;;;;6159750;28;20057;-77
2022/06/21 08:54:16;;;;;;;3.72;2.38;;;;;;;;;;6164974;28;20046;-79
2022/06/21 08:57:29;;;;;;;7.47;3.00;;;;;;;;;;6173664;28;20049;-78
2022/06/21 09:00:52;;;;;;;2.95;2.40;;;;;;;;;;6163485;28;20070;-79
2022/06/21 09:03:53;;;;;;;;;;;;;;;;;;6160299;28;20078;-78
2022/06/21 09:07:04;;;;;;;3.75;2.63;;;;;;;;;;6171515;28;20088;-79
2022/06/21 09:10:36;;;;;;;3.13;2.50;;;;;;;;;;6172730;28;20548;-78
2022/06/21 09:14:16;;;;;;;5.22;2.80;;;;;;;;;;6174876;28;20053;-80
2022/06/21 09:17:40;;;;;;;5.90;2.67;;;;;;;;;;6185613;28;20043;-78
2022/06/21 09:20:48;;;;;;;4.93;2.70;;;;;;;;;;6157798;28;20067;-78
2022/06/21 09:23:56;;;;;;;3.63;2.40;;;;;;;;;;6177001;28;20511;-78
2022/06/21 09:27:12;;;;;;;3.95;2.22;;;;;;;;;;6183059;28;20111;-76
2022/06/21 09:30:18;;;;;;;3.67;2.30;;;;;;;;;;6175202;28;20047;-78
2022/06/21 09:33:32;;;;;;;2.92;2.30;;;;;;;;;;6161714;28;20071;-79
2022/06/21 09:36:51;;;;;;;6.32;2.80;;;;;;;;;;6179716;28;20129;-78
2022/06/21 09:40:25;;;;;;;2.40;2.20;;;;;;;;;;6177141;28;20121;-77
2022/06/21 09:43:46;;;;;;;5.15;2.30;;;;;;;;;;6174566;28;20165;-75
2022/06/21 09:46:59;;;;;;;3.55;2.35;;;;;;;;;;6169814;28;20054;-77
2022/06/21 09:50:24;;;;;;;1.92;1.70;;;;;;;;;;6174042;28;20066;-76
2022/06/21 09:53:44;;;;;;;4.75;1.90;;;;;;;;;;6175050;28;20046;-78
2022/06/21 09:56:59;;;;;;;3.45;1.92;;;;;;;;;;6156172;28;20128;-79
2022/06/21 10:00:33;;;;;;;4.75;2.10;;;;;;;;;;6157123;28;20050;-78
2022/06/21 10:03:48;;;;;;;3.17;2.03;;;;;;;;;;6157582;28;20047;-79
2022/06/21 10:07:07;;;;;;;9.07;4.75;;;;;;;;;;6182367;28;20058;-78
2022/06/21 10:10:40;;;;;;;2.90;1.90;;;;;;;;;;6178072;28;20122;-78
2022/06/21 10:14:07;;;;;;;2.38;1.75;;;;;;;;;;6179091;28;20125;-79
2022/06/21 10:17:13;;;;;;;4.85;2.40;;;;;;;;;;6160045;28;20186;-76
2022/06/21 10:20:30;;;;;;;3.33;2.28;;;;;;;;;;6177558;28;20049;-76
2022/06/21 10:23:49;;;;;;;5.93;2.20;;;;;;;;;;6174504;28;20054;-78
2022/06/21 10:27:16;;;;;;;3.50;2.00;;;;;;;;;;6181062;28;20239;-76
2022/06/21 10:30:33;;;;;;;3.70;2.22;;;;;;;;;;6181904;28;20051;-78
2022/06/21 10:34:00;;;;;;;2.60;2.03;;;;;;;;;;6156025;28;20043;-78
2022/06/21 10:37:45;;;;;;;2.78;1.88;;;;;;;;;;6171296;28;20121;-76
2022/06/21 10:41:11;;;;;;;2.40;2.08;;;;;;;;;;6140934;28;20042;-80
2022/06/21 10:44:36;;;;;;;3.67;2.40;;;;;;;;;;6166089;28;20103;-77
2022/06/21 10:48:10;;;;;;;3.97;2.42;;;;;;;;;;6176263;28;20070;-78
2022/06/21 10:51:27;;;;;;;4.32;2.28;;;;;;;;;;6149557;28;20448;-78
2022/06/21 10:54:56;;;;;;;4.10;2.30;;;;;;;;;;6163714;28;20042;-77
2022/06/21 10:58:25;;;;;;;3.65;2.50;;;;;;;;;;6190679;28;21225;-77
2022/06/21 11:01:37;;;;;;;4.28;2.33;;;;;;;;;;6154299;28;20120;-77
2022/06/21 11:04:57;;;;;;;4.03;2.17;;;;;;;;;;6172390;28;20051;-78
2022/06/21 11:08:06;;;;;;;4.57;2.70;;;;;;;;;;6191951;28;20169;-79
2022/06/21 11:11:20;;;;;;;3.20;2.50;;;;;;;;;;6182844;28;20102;-78
2022/06/21 11:14:43;;;;;;;3.53;2.30;;;;;;;;;;6193794;28;20555;-77
2022/06/21 11:17:44;;;;;;;;;;;;;;;;;;6181068;28;20050;-79
2022/06/21 11:20:55;;;;;;;3.97;2.40;;;;;;;;;;6168551;28;20016;-80
2022/06/21 11:24:18;;;;;;;5.05;2.53;;;;;;;;;;6174250;28;20467;-80
2022/06/21 11:27:35;;;;;;;4.63;2.50;;;;;;;;;;6149051;28;20047;-80
2022/06/21 11:31:14;;;;;;;3.50;2.50;;;;;;;;;;6162392;28;20385;-80
2022/06/21 11:34:41;;;;;;;6.22;2.60;;;;;;;;;;6150596;28;20050;-80
2022/06/21 11:38:04;;;;;;;5.18;2.10;;;;;;;;;;6178237;28;20358;-79
2022/06/21 11:45:08;;;;;;;4.82;2.40;;;;;;;;;;6170770;28;20175;-79
2022/06/21 11:48:47;;;;;;;3.85;2.35;;;;;;;;;;6164088;28;20067;-79
2022/06/21 11:52:00;;;;;;;4.28;2.40;;;;;;;;;;6166083;28;20094;-79
2022/06/21 11:55:22;;;;;;;3.35;2.05;;;;;;;;;;6141956;28;20111;-78
2022/06/21 11:58:47;;;;;;;3.42;2.28;;;;;;;;;;6168243;28;20213;-80
2022/06/21 12:01:53;;;;;;;3.40;2.25;;;;;;;;;;6175253;28;20173;-81
2022/06/21 12:05:04;;;;;;;3.03;2.20;;;;;;;;;;6177150;28;20634;-79
2022/06/21 12:08:22;;;;;;;2.78;2.20;;;;;;;;;;6174881;28;20414;-80
2022/06/21 12:11:39;;;;;;;2.55;2.05;;;;;;;;;;6177181;28;20043;-79
2022/06/21 12:14:59;;;;;;;4.00;2.25;;;;;;;;;;6156495;28;20256;-80
2022/06/21 12:18:20;;;;;;;3.85;2.15;;;;;;;;;;6168913;28;20042;-79
2022/06/21 12:21:27;;;;;;;2.67;2.35;;;;;;;;;;6173264;28;20062;-80
2022/06/21 12:24:29;;;;;;;4.90;2.53;;;;;;;;;;6151219;28;20042;-78
2022/06/21 12:27:31;;;;;;;2.90;2.10;;;;;;;;;;6168670;28;20043;-78
2022/06/21 12:30:33;;;;;;;3.42;2.45;;;;;;;;;;6167107;28;20045;-80
2022/06/21 12:33:36;;;;;;;2.63;2.40;;;;;;;;;;6169736;28;20195;-80
2022/06/21 12:36:39;;;;;;;2.65;2.45;;;;;;;;;;6165658;28;20049;-79
2022/06/21 12:39:53;;;;;;;3.58;2.33;;;;;;;;;;6165421;28;20125;-78
2022/06/21 12:43:22;;;;;;;3.63;2.60;;;;;;;;;;6153508;28;20046;-77
2022/06/21 12:46:45;;;;;;;3.42;2.65;;;;;;;;;;6172071;28;20138;-80
2022/06/21 12:50:20;;;;;;;4.43;2.63;;;;;;;;;;6188101;28;20050;-78
2022/06/21 12:53:47;;;;;;;2.83;2.50;;;;;;;;;;6181899;28;20101;-81
2022/06/21 12:57:10;;;;;;;6.80;2.50;;;;;;;;;;6178073;28;20056;-79
2022/06/21 13:00:29;;;;;;;2.35;2.03;;;;;;;;;;6181346;28;20128;-80
2022/06/21 13:03:55;;;;;;;2.30;2.10;;;;;;;;;;6174966;28;20149;-81
2022/06/21 13:07:42;;;;;;;3.28;2.20;;;;;;;;;;6178649;28;20048;-81
2022/06/21 13:11:05;;;;;;;4.35;2.50;;;;;;;;;;6176825;28;20554;-82
2022/06/21 13:14:38;;;;;;;3.40;2.00;;;;;;;;;;6171980;28;20515;-81
2022/06/21 13:17:59;;;;;;;4.00;2.38;;;;;;;;;;6140790;28;20075;-79
2022/06/21 13:21:38;;;;;;;3.63;2.60;;;;;;;;;;6165004;28;20047;-84
2022/06/21 13:24:57;;;;;;;3.13;2.10;;;;;;;;;;6171425;28;20129;-82
2022/06/21 13:28:10;;;;;;;5.60;2.70;;;;;;;;;;6147606;28;20051;-83
2022/06/21 13:31:38;;;;;;;3.85;2.00;;;;;;;;;;6154830;28;20072;-84
2022/06/21 13:35:13;;;;;;;2.50;1.95;;;;;;;;;;6189921;28;20046;-84
2022/06/21 13:38:24;;;;;;;3.22;2.00;;;;;;;;;;6168225;28;20463;-86
2022/06/21 13:45:11;;;;;;;2.28;2.15;;;;;;;;;;6179156;28;20054;-84
2022/06/21 13:48:28;;;;;;;3.70;2.30;;;;;;;;;;6172731;28;20075;-82
2022/06/21 13:51:51;;;;;;;3.13;2.67;;;;;;;;;;6189917;28;20063;-83
2022/06/21 13:54:57;;;;;;;2.67;2.08;;;;;;;;;;6165175;28;20046;-80
2022/06/21 13:58:10;;;;;;;2.75;2.20;;;;;;;;;;6189667;28;20071;-83
2022/06/21 14:01:15;;;;;;;3.17;2.10;;;;;;;;;;6174791;28;20053;-84
2022/06/21 14:04:52;;;;;;;5.40;2.58;;;;;;;;;;6178010;28;20520;-83
2022/06/21 14:08:06;;;;;;;3.63;2.20;;;;;;;;;;6175204;28;20097;-84
2022/06/21 14:11:33;;;;;;;2.63;2.25;;;;;;;;;;6171424;28;20703;-88
2022/06/21 14:14:56;;;;;;;2.65;2.10;;;;;;;;;;6170991;28;20237;-83
2022/06/21 14:18:10;;;;;;;4.90;2.30;;;;;;;;;;6178148;28;20054;-85
2022/06/21 14:21:40;;;;;;;5.57;2.40;;;;;;;;;;6173262;28;20051;-77
2022/06/21 14:25:19;;;;;;;6.07;2.53;;;;;;;;;;6138034;28;20043;-78
2022/06/21 14:28:53;;;;;;;3.40;2.58;;;;;;;;;;6170963;28;20137;-78
2022/06/21 14:32:08;;;;;;;2.85;2.42;;;;;;;;;;6150401;28;20157;-79
2022/06/21 14:35:21;;;;;;;3.83;2.30;;;;;;;;;;6159227;28;20520;-78
2022/06/21 14:38:50;;;;;;;2.83;2.55;;;;;;;;;;6161060;28;20093;-80
2022/06/21 14:41:55;;;;;;;3.20;2.28;;;;;;;;;;6118078;28;20142;-80
2022/06/21 14:45:03;;;;;;;4.50;2.22;;;;;;;;;;6176506;28;20066;-80
2022/06/21 14:48:27;;;;;;;2.83;2.30;;;;;;;;;;6173743;28;20056;-80
2022/06/21 14:51:45;;;;;;;3.58;2.65;;;;;;;;;;6142621;28;20050;-78
2022/06/21 14:55:09;;;;;;;2.50;2.30;;;;;;;;;;6163557;28;20116;-78
2022/06/21 14:58:22;;;;;;;4.57;2.33;;;;;;;;;;6173796;28;20049;-80
2022/06/21 15:01:33;;;;;;;2.72;2.50;;;;;;;;;;6171096;28;20046;-79
2022/06/21 15:04:42;;;;;;;3.53;2.27;;;;;;;;;;6158748;28;20106;-79
2022/06/21 15:08:00;;;;;;;2.85;2.35;;;;;;;;;;6180335;28;20057;-79
2022/06/21 15:15:09;;;;;;;3.17;2.47;;;;;;;;;;6152000;28;20683;-79
2022/06/21 15:18:26;;;;;;;2.63;2.13;;;;;;;;;;6176656;28;20051;-78
2022/06/21 15:21:38;;;;;;;3.88;2.03;;;;;;;;;;6160159;28;20054;-79
2022/06/21 15:24:40;;;;;;;3.15;2.40;;;;;;;;;;6174111;28;20055;-79
2022/06/21 15:27:57;;;;;;;3.13;2.40;;;;;;;;;;6169719;28;20058;-79
2022/06/21 15:30:59;;;;;;;2.97;2.00;;;;;;;;;;6169290;28;20109;-79
2022/06/21 15:34:02;;;;;;;2.83;2.35;;;;;;;;;;6174909;28;20512;-79
2022/06/21 15:37:31;;;;;;;2.38;2.00;;;;;;;;;;6178548;28;20121;-78
2022/06/21 15:40:41;;;;;;;4.10;2.10;;;;;;;;;;6164211;28;20185;-78
2022/06/21 15:43:44;;;;;;;2.28;1.92;;;;;;;;;;6165741;28;20046;-80
2022/06/21 15:50:12;;;;;;;3.83;2.00;;;;;;;;;;6172795;28;20049;-79
2022/06/21 15:50:21;;;;;;;2.38;1.98;;;;;;;;;;6166700;28;20232;-79
2022/06/21 15:53:35;;;;;;;3.35;2.00;;;;;;;;;;6163348;28;20514;-81
2022/06/21 15:56:54;;;;;;;2.28;1.95;;;;;;;;;;6177577;28;20113;-80
2022/06/21 16:00:04;;;;;;;2.25;1.92;;;;;;;;;;6152192;28;20054;-79
2022/06/21 16:03:26;;;;;;;2.80;2.10;;;;;;;;;;6143912;28;20042;-76
2022/06/21 16:06:45;;;;;;;3.70;2.30;;;;;;;;;;6168819;28;20039;-79
2022/06/21 16:09:51;;;;;;;2.33;1.90;;;;;;;;;;6165750;28;20043;-79
2022/06/21 16:12:54;;;;;;;3.25;2.33;;;;;;;;;;6171231;28;20054;-79
2022/06/21 16:16:02;;;;;;;4.50;1.95;;;;;;;;;;6180477;28;20392;-79
2022/06/21 16:19:09;;;;;;;2.95;2.15;;;;;;;;;;6179332;28;20492;-79
2022/06/21 16:22:11;;;;;;;3.53;2.40;;;;;;;;;;6185453;28;20664;-79
2022/06/21 16:25:28;;;;;;;4.80;2.50;;;;;;;;;;6186011;28;20500;-79
2022/06/21 16:29:07;;;;;;;3.53;2.17;;;;;;;;;;6185160;28;20043;-80
2022/06/21 16:36:12;;;;;;;2.28;1.80;;;;;;;;;;6156151;28;20058;-79
2022/06/21 16:39:30;;;;;;;2.22;1.90;;;;;;;;;;6179835;28;20050;-79
2022/06/21 16:46:06;;;;;;;2.45;2.00;;;;;;;;;;6174503;28;20129;-79
2022/06/21 16:49:18;;;;;;;3.42;2.10;;;;;;;;;;6177968;28;20050;-79
2022/06/21 16:52:28;;;;;;;2.83;2.50;;;;;;;;;;6174914;28;20046;-78
2022/06/21 16:55:30;;;;;;;2.97;2.30;;;;;;;;;;6142596;28;20089;-78
2022/06/21 16:58:49;;;;;;;2.60;2.40;;;;;;;;;;6179220;28;20108;-79
2022/06/21 17:01:55;;;;;;;2.55;2.28;;;;;;;;;;6176255;28;20109;-78
2022/06/21 17:05:14;;;;;;;4.53;2.55;;;;;;;;;;6177996;28;20137;-78
2022/06/21 17:08:21;;;;;;;3.67;2.20;;;;;;;;;;6176468;28;20043;-78
2022/06/21 17:11:25;;;;;;;3.70;2.85;;;;;;;;;;6187431;28;20045;-77
2022/06/21 17:14:56;;;;;;;3.10;2.33;;;;;;;;;;6184099;28;20101;-78
2022/06/21 17:18:12;;;;;;;2.72;2.53;;;;;;;;;;6174028;28;20089;-79
2022/06/21 17:21:33;;;;;;;3.05;2.20;;;;;;;;;;6177179;28;20132;-78
2022/06/21 17:24:48;;;;;;;2.83;2.22;;;;;;;;;;6148472;28;20047;-78
2022/06/21 17:28:06;;;;;;;3.63;2.08;;;;;;;;;;6177772;28;20080;-80
2022/06/21 17:31:31;;;;;;;2.45;2.20;;;;;;;;;;6182456;28;20085;-82
2022/06/21 17:34:43;;;;;;;2.95;2.38;;;;;;;;;;6175091;28;20046;-85
2022/06/21 17:38:11;;;;;;;4.03;2.50;;;;;;;;;;6171781;28;20045;-84
2022/06/21 17:41:21;;;;;;;3.53;2.30;;;;;;;;;;6185566;28;20116;-80
2022/06/21 17:44:47;;;;;;;4.00;2.10;;;;;;;;;;6180091;28;20133;-84
2022/06/21 17:47:53;;;;;;;2.63;2.40;;;;;;;;;;6175177;28;20058;-82
2022/06/21 17:51:02;;;;;;;3.90;2.22;;;;;;;;;;6171065;28;20129;-83
2022/06/21 17:54:15;;;;;;;3.47;2.40;;;;;;;;;;6176937;28;20413;-83
2022/06/21 17:57:22;;;;;;;2.50;2.30;;;;;;;;;;6166762;28;20133;-82
2022/06/21 18:00:35;;;;;;;3.10;2.22;;;;;;;;;;6171507;28;20053;-80
2022/06/21 18:04:04;;;;;;;3.70;2.40;;;;;;;;;;6174949;28;20534;-82
2022/06/21 18:07:12;;;;;;;4.75;2.13;;;;;;;;;;6174015;28;20129;-82
2022/06/21 18:10:41;;;;;;;2.25;2.05;;;;;;;;;;6180786;28;20053;-82
2022/06/21 18:14:05;;;;;;;2.70;2.47;;;;;;;;;;6156353;28;20051;-84
2022/06/21 18:17:15;;;;;;;4.78;2.53;;;;;;;;;;6163536;28;20046;-81
2022/06/21 18:20:45;;;;;;;3.10;2.50;;;;;;;;;;6175142;28;20039;-81
2022/06/21 18:23:53;;;;;;;4.00;2.75;;;;;;;;;;6178626;28;20514;-84
2022/06/21 18:27:29;;;;;;;3.55;2.40;;;;;;;;;;6174511;28;20050;-81
2022/06/21 18:30:45;;;;;;;3.05;2.75;;;;;;;;;;6140098;28;20039;-83
2022/06/21 18:33:50;;;;;;;4.07;3.10;;;;;;;;;;6167042;28;20042;-83
2022/06/21 18:36:53;;;;;;;5.30;2.92;;;;;;;;;;6174605;28;20050;-79
2022/06/21 18:40:03;;;;;;;2.58;2.38;;;;;;;;;;6176343;28;20054;-81
2022/06/21 18:43:26;;;;;;;4.32;2.75;;;;;;;;;;6177087;28;20058;-82
2022/06/21 18:46:54;;;;;;;4.87;2.77;;;;;;;;;;6171663;28;20500;-84
2022/06/21 18:50:27;;;;;;;3.63;2.40;;;;;;;;;;6162872;28;20640;-81
2022/06/21 18:53:52;;;;;;;3.40;2.70;;;;;;;;;;6178409;28;20057;-84
2022/06/21 18:56:57;;;;;;;;;;;;;;;;;;6183973;28;20052;-81
2022/06/21 19:00:08;;;;;;;4.70;2.90;;;;;;;;;;6175679;28;19934;-82
2022/06/21 19:03:17;;;;;;;3.17;2.90;;;;;;;;;;6178199;28;20069;-83
2022/06/21 19:10:52;;;;;;;3.78;3.05;;;;;;;;;;6165478;28;20050;-84
2022/06/21 19:14:17;;;;;;;;;;;;;;;;;;6168436;28;20128;-83
2022/06/21 19:18:00;;;;;;;4.20;2.60;;;;;;;;;;6182973;28;20057;-85
2022/06/21 19:21:02;;;;;;;3.72;2.80;;;;;;;;;;6176547;28;20104;-82
2022/06/21 19:24:09;;;;;;;3.47;3.05;;;;;;;;;;6168612;28;20417;-82
2022/06/21 19:27:48;;;;;;;3.95;3.00;;;;;;;;;;6175212;28;20130;-81
2022/06/21 19:31:11;;;;;;;3.67;3.38;;;;;;;;;;6168955;28;20135;-84
2022/06/21 19:34:36;;;;;;;6.10;3.20;;;;;;;;;;6178325;28;20054;-82
2022/06/21 19:38:05;;;;;;;5.93;3.30;;;;;;;;;;6170934;28;20058;-83
2022/06/21 19:41:37;;;;;;;3.78;2.90;;;;;;;;;;6179031;28;20080;-83
2022/06/21 19:44:45;;;;;;;5.55;3.40;;;;;;;;;;6169684;28;20150;-84
2022/06/21 19:48:34;;;;;;;4.00;3.50;;;;;;;;;;6179128;28;20054;-80
2022/06/21 19:51:47;;;;;;;5.88;3.95;;;;;;;;;;6134085;28;20055;-82